createdAt,value
2022-07-27T00:00:35.975Z,17.70
2022-07-27T00:01:35.861Z,17.74
2022-07-27T00:02:35.854Z,17.76
2022-07-27T00:03:35.743Z,17.87
2022-07-27T00:04:35.740Z,17.80
2022-07-27T00:05:35.875Z,17.81
2022-07-27T00:06:35.582Z,17.77
2022-07-27T00:07:35.486Z,17.83
2022-07-27T00:08:35.466Z,17.73
2022-07-27T00:09:35.339Z,17.73
2022-07-27T00:10:35.292Z,17.77
2022-07-27T00:11:35.191Z,17.68
2022-07-27T00:12:35.139Z,17.71
2022-07-27T00:13:35.076Z,17.66
2022-07-27T00:14:35.010Z,17.66
2022-07-27T00:15:34.953Z,17.58
2022-07-27T00:16:34.984Z,17.57
2022-07-27T00:17:34.831Z,17.58
2022-07-27T00:18:34.771Z,17.65
2022-07-27T00:19:34.738Z,17.71
2022-07-27T00:20:34.651Z,17.71
2022-07-27T00:21:34.586Z,17.65
2022-07-27T00:22:34.531Z,17.68
2022-07-27T00:23:34.469Z,17.73
2022-07-27T00:24:34.412Z,17.76
2022-07-27T00:25:34.349Z,17.70
2022-07-27T00:26:34.287Z,17.87
2022-07-27T00:27:34.224Z,17.74
2022-07-27T00:28:34.169Z,17.79
2022-07-27T00:29:34.149Z,17.68
2022-07-27T00:30:34.043Z,17.57
2022-07-27T00:31:34.108Z,17.49
2022-07-27T00:32:33.923Z,17.47
2022-07-27T00:33:33.861Z,17.47
2022-07-27T00:34:33.807Z,17.36
2022-07-27T00:35:33.750Z,17.21
2022-07-27T00:36:33.685Z,17.14
2022-07-27T00:37:33.622Z,17.10
2022-07-27T00:38:33.575Z,17.09
2022-07-27T00:39:33.505Z,17.00
2022-07-27T00:40:33.442Z,16.95
2022-07-27T00:41:33.408Z,16.88
2022-07-27T00:42:33.321Z,16.78
2022-07-27T00:43:33.257Z,16.72
2022-07-27T00:44:33.203Z,16.75
2022-07-27T00:45:33.139Z,16.67
2022-07-27T00:46:33.133Z,16.69
2022-07-27T00:47:33.019Z,16.60
2022-07-27T00:48:33.040Z,16.47
2022-07-27T00:49:32.895Z,16.42
2022-07-27T00:50:32.834Z,16.34
2022-07-27T00:51:32.776Z,16.23
2022-07-27T00:52:32.715Z,16.23
2022-07-27T00:53:32.657Z,16.22
2022-07-27T00:54:32.590Z,16.17
2022-07-27T00:55:32.552Z,16.07
2022-07-27T00:56:32.475Z,16.03
2022-07-27T00:57:32.447Z,15.96
2022-07-27T00:58:32.351Z,15.96
2022-07-27T00:59:32.349Z,15.93
2022-07-27T01:00:32.225Z,15.88
2022-07-27T01:01:32.371Z,15.84
2022-07-27T01:02:32.191Z,15.76
2022-07-27T01:03:32.046Z,15.84
2022-07-27T01:04:31.989Z,15.80
2022-07-27T01:05:36.304Z,15.88
2022-07-27T01:06:31.862Z,15.93
2022-07-27T01:07:31.800Z,15.89
2022-07-27T01:08:31.751Z,15.92
2022-07-27T01:09:31.684Z,15.80
2022-07-27T01:10:31.618Z,15.78
2022-07-27T01:11:31.563Z,15.62
2022-07-27T01:12:31.509Z,15.64
2022-07-27T01:13:31.436Z,15.64
2022-07-27T01:14:31.376Z,15.68
2022-07-27T01:15:31.321Z,15.64
2022-07-27T01:16:31.277Z,15.53
2022-07-27T01:17:31.190Z,15.53
2022-07-27T01:18:31.136Z,15.60
2022-07-27T01:19:31.072Z,15.56
2022-07-27T01:20:31.009Z,15.58
2022-07-27T01:21:33.057Z,15.70
2022-07-27T01:22:30.891Z,15.56
2022-07-27T01:23:30.827Z,15.52
2022-07-27T01:24:30.764Z,15.60
2022-07-27T01:25:30.707Z,15.53
2022-07-27T01:26:30.651Z,15.56
2022-07-27T01:27:30.581Z,15.56
2022-07-27T01:28:30.525Z,15.58
2022-07-27T01:29:30.461Z,15.48
2022-07-27T01:30:30.632Z,15.49
2022-07-27T01:31:30.385Z,15.44
2022-07-27T01:32:30.284Z,15.49
2022-07-27T01:33:30.221Z,15.41
2022-07-27T01:34:30.157Z,15.48
2022-07-27T01:35:30.092Z,15.43
2022-07-27T01:36:30.036Z,15.34
2022-07-27T01:37:29.981Z,15.35
2022-07-27T01:38:29.906Z,15.28
2022-07-27T01:39:29.848Z,15.27
2022-07-27T01:40:29.792Z,15.27
2022-07-27T01:41:29.735Z,15.19
2022-07-27T01:42:29.672Z,15.31
2022-07-27T01:43:29.607Z,15.38
2022-07-27T01:44:29.542Z,15.23
2022-07-27T01:45:29.481Z,15.28
2022-07-27T01:46:29.460Z,15.34
2022-07-27T01:47:29.357Z,15.19
2022-07-27T01:48:29.294Z,15.27
2022-07-27T01:49:29.327Z,15.20
2022-07-27T01:50:29.173Z,15.25
2022-07-27T01:51:29.108Z,15.20
2022-07-27T01:52:29.052Z,15.19
2022-07-27T01:53:28.989Z,15.12
2022-07-27T01:54:28.928Z,15.13
2022-07-27T01:55:35.781Z,15.01
2022-07-27T01:56:28.806Z,15.05
2022-07-27T01:57:28.745Z,15.05
2022-07-27T01:58:28.690Z,15.01
2022-07-27T01:59:28.620Z,14.82
2022-07-27T02:00:28.568Z,14.91
2022-07-27T02:01:28.527Z,14.95
2022-07-27T02:02:28.435Z,14.87
2022-07-27T02:03:28.376Z,14.86
2022-07-27T02:04:28.318Z,14.83
2022-07-27T02:05:28.325Z,14.75
2022-07-27T02:06:28.187Z,14.71
2022-07-27T02:07:28.123Z,14.74
2022-07-27T02:08:28.069Z,14.75
2022-07-27T02:09:28.001Z,14.78
2022-07-27T02:10:27.942Z,14.78
2022-07-27T02:11:27.879Z,14.80
2022-07-27T02:12:27.820Z,14.69
2022-07-27T02:13:27.777Z,14.60
2022-07-27T02:14:27.699Z,14.59
2022-07-27T02:15:27.849Z,14.63
2022-07-27T02:16:27.643Z,14.54
2022-07-27T02:17:29.702Z,14.49
2022-07-27T02:18:36.041Z,14.46
2022-07-27T02:19:27.396Z,14.42
2022-07-27T02:20:27.337Z,14.36
2022-07-27T02:21:27.264Z,14.41
2022-07-27T02:22:27.208Z,14.36
2022-07-27T02:23:27.143Z,14.27
2022-07-27T02:24:27.086Z,14.21
2022-07-27T02:25:27.025Z,14.20
2022-07-27T02:26:26.965Z,14.19
2022-07-27T02:27:26.893Z,14.24
2022-07-27T02:28:26.834Z,14.23
2022-07-27T02:29:26.780Z,14.30
2022-07-27T02:30:26.709Z,14.30
2022-07-27T02:31:26.661Z,14.26
2022-07-27T02:32:26.659Z,14.21
2022-07-27T02:33:26.529Z,14.21
2022-07-27T02:34:26.474Z,14.23
2022-07-27T02:35:26.437Z,14.21
2022-07-27T02:36:26.338Z,14.27
2022-07-27T02:37:26.277Z,14.34
2022-07-27T02:38:26.221Z,14.39
2022-07-27T02:39:26.155Z,14.34
2022-07-27T02:40:26.093Z,14.34
2022-07-27T02:41:26.034Z,14.24
2022-07-27T02:42:25.971Z,14.12
2022-07-27T02:43:25.919Z,14.16
2022-07-27T02:44:25.848Z,14.20
2022-07-27T02:45:25.781Z,14.05
2022-07-27T02:46:25.763Z,14.16
2022-07-27T02:47:25.661Z,14.16
2022-07-27T02:48:25.598Z,14.08
2022-07-27T02:49:25.643Z,14.16
2022-07-27T02:50:25.479Z,14.12
2022-07-27T02:51:25.411Z,14.13
2022-07-27T02:52:25.351Z,14.19
2022-07-27T02:53:25.294Z,14.20
2022-07-27T02:54:25.231Z,14.11
2022-07-27T02:55:25.164Z,14.20
2022-07-27T02:56:26.711Z,14.16
2022-07-27T02:57:25.042Z,14.26
2022-07-27T02:58:24.983Z,14.17
2022-07-27T02:59:24.914Z,14.16
2022-07-27T03:00:24.855Z,14.04
2022-07-27T03:01:24.827Z,14.06
2022-07-27T03:02:24.729Z,14.05
2022-07-27T03:03:24.677Z,13.98
2022-07-27T03:04:24.668Z,14.08
2022-07-27T03:05:24.565Z,14.12
2022-07-27T03:06:24.495Z,14.08
2022-07-27T03:07:24.419Z,14.04
2022-07-27T03:08:24.359Z,14.01
2022-07-27T03:09:32.939Z,14.04
2022-07-27T03:10:24.236Z,13.93
2022-07-27T03:11:24.178Z,13.93
2022-07-27T03:12:24.111Z,13.94
2022-07-27T03:13:24.050Z,13.99
2022-07-27T03:14:23.986Z,13.96
2022-07-27T03:15:23.922Z,14.11
2022-07-27T03:16:23.923Z,14.01
2022-07-27T03:17:23.819Z,14.04
2022-07-27T03:18:23.739Z,14.04
2022-07-27T03:19:28.287Z,14.02
2022-07-27T03:20:23.632Z,14.05
2022-07-27T03:21:23.554Z,14.01
2022-07-27T03:22:23.495Z,14.08
2022-07-27T03:23:23.432Z,13.96
2022-07-27T03:24:23.377Z,13.93
2022-07-27T03:25:23.319Z,14.08
2022-07-27T03:26:23.252Z,14.04
2022-07-27T03:27:23.183Z,14.06
2022-07-27T03:28:23.131Z,14.06
2022-07-27T03:29:23.062Z,14.06
2022-07-27T03:30:23.674Z,14.04
2022-07-27T03:31:22.998Z,13.99
2022-07-27T03:32:22.876Z,14.02
2022-07-27T03:33:22.808Z,14.06
2022-07-27T03:34:22.743Z,14.09
2022-07-27T03:35:22.685Z,14.04
2022-07-27T03:36:22.624Z,14.02
2022-07-27T03:37:22.561Z,14.08
2022-07-27T03:38:22.528Z,14.12
2022-07-27T03:39:22.430Z,14.09
2022-07-27T03:40:22.373Z,14.16
2022-07-27T03:41:22.308Z,14.13
2022-07-27T03:42:22.245Z,14.19
2022-07-27T03:43:22.185Z,14.08
2022-07-27T03:44:22.151Z,14.02
2022-07-27T03:45:22.065Z,14.16
2022-07-27T03:46:22.057Z,14.09
2022-07-27T03:47:21.941Z,14.17
2022-07-27T03:48:21.875Z,14.19
2022-07-27T03:49:21.868Z,14.16
2022-07-27T03:50:21.765Z,14.27
2022-07-27T03:51:21.687Z,14.30
2022-07-27T03:52:21.629Z,14.31
2022-07-27T03:53:21.573Z,14.26
2022-07-27T03:54:21.507Z,14.19
2022-07-27T03:55:21.446Z,14.19
2022-07-27T03:56:21.378Z,14.29
2022-07-27T03:57:21.315Z,14.30
2022-07-27T03:58:21.258Z,14.27
2022-07-27T03:59:21.196Z,14.36
2022-07-27T04:00:21.135Z,14.44
2022-07-27T04:01:21.167Z,14.36
2022-07-27T04:02:21.060Z,14.35
2022-07-27T04:03:20.943Z,14.45
2022-07-27T04:04:20.880Z,14.53
2022-07-27T04:05:20.816Z,14.48
2022-07-27T04:06:20.753Z,14.54
2022-07-27T04:07:20.693Z,14.59
2022-07-27T04:08:20.631Z,14.66
2022-07-27T04:09:20.566Z,14.75
2022-07-27T04:10:20.511Z,14.71
2022-07-27T04:11:20.451Z,14.83
2022-07-27T04:12:20.381Z,14.90
2022-07-27T04:13:20.321Z,14.85
2022-07-27T04:14:20.259Z,14.93
2022-07-27T04:15:20.215Z,14.74
2022-07-27T04:16:20.172Z,14.78
2022-07-27T04:17:54.478Z,14.67
2022-07-27T04:18:20.009Z,14.85
2022-07-27T04:19:19.948Z,14.82
2022-07-27T04:20:19.886Z,14.97
2022-07-27T04:21:19.831Z,14.95
2022-07-27T04:22:19.772Z,14.90
2022-07-27T04:23:19.703Z,15.01
2022-07-27T04:24:19.643Z,15.01
2022-07-27T04:25:19.578Z,14.94
2022-07-27T04:26:19.516Z,14.86
2022-07-27T04:27:19.452Z,14.82
2022-07-27T04:28:19.434Z,14.83
2022-07-27T04:29:20.722Z,14.86
2022-07-27T04:30:19.267Z,14.72
2022-07-27T04:31:19.266Z,14.72
2022-07-27T04:32:19.143Z,14.75
2022-07-27T04:33:19.082Z,14.80
2022-07-27T04:34:19.021Z,14.72
2022-07-27T04:35:22.764Z,14.85
2022-07-27T04:36:18.893Z,14.71
2022-07-27T04:37:18.838Z,14.87
2022-07-27T04:38:18.767Z,14.87
2022-07-27T04:39:18.710Z,14.79
2022-07-27T04:40:18.668Z,14.80
2022-07-27T04:41:18.584Z,14.79
2022-07-27T04:42:18.522Z,14.79
2022-07-27T04:43:18.463Z,14.79
2022-07-27T04:44:18.396Z,14.78
2022-07-27T04:45:18.338Z,14.87
2022-07-27T04:46:18.340Z,14.94
2022-07-27T04:47:18.223Z,14.83
2022-07-27T04:48:18.151Z,14.90
2022-07-27T04:49:18.123Z,14.82
2022-07-27T04:50:18.028Z,14.94
2022-07-27T04:51:17.979Z,15.00
2022-07-27T04:52:17.903Z,15.03
2022-07-27T04:53:17.846Z,15.12
2022-07-27T04:54:17.778Z,15.16
2022-07-27T04:55:17.721Z,15.07
2022-07-27T04:56:17.654Z,15.16
2022-07-27T04:57:17.606Z,15.18
2022-07-27T04:58:17.545Z,15.18
2022-07-27T04:59:17.473Z,15.25
2022-07-27T05:00:17.416Z,15.31
2022-07-27T05:01:17.421Z,15.38
2022-07-27T05:02:17.287Z,15.44
2022-07-27T05:03:17.238Z,15.56
2022-07-27T05:04:17.284Z,15.66
2022-07-27T05:05:17.108Z,15.81
2022-07-27T05:06:17.035Z,15.88
2022-07-27T05:07:16.979Z,15.89
2022-07-27T05:08:16.920Z,15.96
2022-07-27T05:09:16.862Z,16.25
2022-07-27T05:10:20.406Z,16.42
2022-07-27T05:11:16.731Z,16.66
2022-07-27T05:12:16.666Z,16.84
2022-07-27T05:13:16.607Z,17.00
2022-07-27T05:14:16.545Z,17.12
2022-07-27T05:15:16.488Z,17.32
2022-07-27T05:16:16.453Z,17.39
2022-07-27T05:17:16.367Z,17.60
2022-07-27T05:18:16.296Z,18.14
2022-07-27T05:19:16.244Z,18.65
2022-07-27T05:20:16.175Z,19.20
2022-07-27T05:21:16.118Z,19.94
2022-07-27T05:22:16.052Z,20.87
2022-07-27T05:23:15.996Z,21.09
2022-07-27T05:24:15.934Z,20.44
2022-07-27T05:25:15.876Z,19.70
2022-07-27T05:26:15.809Z,19.05
2022-07-27T05:27:15.753Z,18.71
2022-07-27T05:28:15.689Z,18.23
2022-07-27T05:29:15.855Z,18.13
2022-07-27T05:30:15.591Z,18.23
2022-07-27T05:31:15.587Z,18.02
2022-07-27T05:32:15.534Z,17.87
2022-07-27T05:33:15.391Z,17.89
2022-07-27T05:34:15.327Z,17.87
2022-07-27T05:35:15.278Z,17.73
2022-07-27T05:36:15.230Z,17.71
2022-07-27T05:37:15.161Z,17.86
2022-07-27T05:38:15.101Z,18.32
2022-07-27T05:39:15.555Z,19.23
2022-07-27T05:40:15.044Z,19.97
2022-07-27T05:41:14.905Z,20.87
2022-07-27T05:42:14.845Z,21.42
2022-07-27T05:43:14.801Z,22.20
2022-07-27T05:44:14.724Z,22.82
2022-07-27T05:45:14.673Z,23.06
2022-07-27T05:46:14.649Z,22.42
2022-07-27T05:47:14.543Z,22.89
2022-07-27T05:48:14.513Z,22.81
2022-07-27T05:49:15.010Z,22.60
2022-07-27T05:50:14.375Z,22.99
2022-07-27T05:51:14.308Z,22.64
2022-07-27T05:52:14.243Z,22.72
2022-07-27T05:53:14.200Z,23.23
2022-07-27T05:54:14.124Z,23.47
2022-07-27T05:55:14.070Z,23.79
2022-07-27T05:56:14.007Z,24.11
2022-07-27T05:57:13.968Z,23.82
2022-07-27T05:58:13.888Z,23.81
2022-07-27T05:59:14.104Z,23.97
2022-07-27T06:00:13.772Z,24.37
2022-07-27T06:01:13.756Z,24.71
2022-07-27T06:02:13.660Z,24.80
2022-07-27T06:03:13.652Z,24.67
2022-07-27T06:04:14.735Z,24.70
2022-07-27T06:05:17.352Z,24.75
2022-07-27T06:06:13.426Z,24.97
2022-07-27T06:07:13.360Z,24.82
2022-07-27T06:08:13.300Z,25.24
2022-07-27T06:09:13.652Z,25.19
2022-07-27T06:10:13.185Z,25.17
2022-07-27T06:11:13.127Z,25.12
2022-07-27T06:12:13.071Z,25.05
2022-07-27T06:13:13.013Z,24.98
2022-07-27T06:14:12.954Z,25.02
2022-07-27T06:15:12.898Z,25.30
2022-07-27T06:16:12.924Z,25.44
2022-07-27T06:17:12.778Z,25.66
2022-07-27T06:18:12.717Z,25.53
2022-07-27T06:19:13.125Z,25.75
2022-07-27T06:20:12.606Z,25.90
2022-07-27T06:21:12.548Z,26.27
2022-07-27T06:22:12.486Z,26.06
2022-07-27T06:23:12.430Z,26.12
2022-07-27T06:24:12.372Z,26.28
2022-07-27T06:25:12.329Z,26.19
2022-07-27T06:26:12.254Z,26.13
2022-07-27T06:27:12.203Z,25.72
2022-07-27T06:28:12.151Z,25.74
2022-07-27T06:29:12.434Z,25.82
2022-07-27T06:30:12.106Z,25.91
2022-07-27T06:31:11.994Z,25.83
2022-07-27T06:32:11.996Z,25.97
2022-07-27T06:33:11.865Z,26.19
2022-07-27T06:34:12.113Z,26.59
2022-07-27T06:35:12.579Z,26.59
2022-07-27T06:36:11.682Z,26.31
2022-07-27T06:37:11.626Z,25.86
2022-07-27T06:38:11.570Z,25.96
2022-07-27T06:39:11.843Z,25.63
2022-07-27T06:40:11.453Z,25.39
2022-07-27T06:41:11.414Z,25.34
2022-07-27T06:42:11.338Z,24.80
2022-07-27T06:43:11.282Z,24.09
2022-07-27T06:44:11.218Z,23.71
2022-07-27T06:45:11.165Z,24.04
2022-07-27T06:46:11.108Z,24.52
2022-07-27T06:47:11.103Z,25.07
2022-07-27T06:48:10.996Z,25.12
2022-07-27T06:49:11.313Z,25.14
2022-07-27T06:50:10.876Z,25.35
2022-07-27T06:51:10.828Z,25.04
2022-07-27T06:52:10.764Z,24.79
2022-07-27T06:53:10.708Z,24.14
2022-07-27T06:54:10.665Z,23.47
2022-07-27T06:55:10.592Z,22.99
2022-07-27T06:56:10.537Z,22.66
2022-07-27T06:57:10.478Z,22.52
2022-07-27T06:58:10.418Z,22.52
2022-07-27T06:59:10.670Z,22.54
2022-07-27T07:00:10.313Z,22.30
2022-07-27T07:01:10.289Z,22.35
2022-07-27T07:02:10.192Z,22.41
2022-07-27T07:03:10.132Z,22.46
2022-07-27T07:04:10.138Z,22.56
2022-07-27T07:05:10.081Z,22.79
2022-07-27T07:06:10.044Z,22.85
2022-07-27T07:07:09.944Z,23.06
2022-07-27T07:08:09.888Z,23.32
2022-07-27T07:09:10.347Z,23.62
2022-07-27T07:10:09.724Z,23.69
2022-07-27T07:11:09.674Z,23.41
2022-07-27T07:12:09.614Z,23.12
2022-07-27T07:13:09.556Z,22.66
2022-07-27T07:14:09.498Z,22.29
2022-07-27T07:15:09.437Z,21.64
2022-07-27T07:16:09.455Z,21.66
2022-07-27T07:17:09.400Z,21.67
2022-07-27T07:18:09.262Z,21.68
2022-07-27T07:19:09.421Z,21.85
2022-07-27T07:20:09.145Z,22.09
2022-07-27T07:21:09.088Z,22.29
2022-07-27T07:22:09.029Z,22.48
2022-07-27T07:23:08.979Z,22.85
2022-07-27T07:24:08.916Z,22.82
2022-07-27T07:25:08.858Z,22.52
2022-07-27T07:26:08.799Z,22.70
2022-07-27T07:27:08.741Z,22.67
2022-07-27T07:28:08.681Z,22.75
2022-07-27T07:29:08.798Z,23.12
2022-07-27T07:30:08.600Z,23.49
2022-07-27T07:31:08.564Z,23.77
2022-07-27T07:32:08.450Z,23.57
2022-07-27T07:33:08.393Z,23.49
2022-07-27T07:34:08.334Z,23.62
2022-07-27T07:35:08.305Z,23.62
2022-07-27T07:36:11.941Z,23.52
2022-07-27T07:37:08.162Z,23.47
2022-07-27T07:38:08.100Z,23.16
2022-07-27T07:39:08.045Z,23.26
2022-07-27T07:40:40.062Z,23.34
2022-07-27T07:41:07.941Z,23.42
2022-07-27T07:42:10.956Z,23.59
2022-07-27T07:43:07.809Z,23.15
2022-07-27T07:44:07.752Z,23.12
2022-07-27T07:45:07.695Z,23.11
2022-07-27T07:46:07.658Z,22.97
2022-07-27T07:47:07.626Z,22.78
2022-07-27T07:48:07.527Z,22.82
2022-07-27T07:49:07.503Z,22.93
2022-07-27T07:50:08.591Z,22.99
2022-07-27T07:51:07.409Z,23.00
2022-07-27T07:52:07.380Z,22.85
2022-07-27T07:53:07.256Z,22.56
2022-07-27T07:54:07.224Z,22.02
2022-07-27T07:55:08.432Z,21.96
2022-07-27T07:56:07.086Z,21.89
2022-07-27T07:57:07.451Z,21.93
2022-07-27T07:58:07.023Z,21.75
2022-07-27T07:59:06.957Z,21.64
2022-07-27T08:00:06.920Z,21.59
2022-07-27T08:01:06.795Z,21.27
2022-07-27T08:02:06.812Z,21.15
2022-07-27T08:03:06.781Z,20.97
2022-07-27T08:04:06.644Z,20.82
2022-07-27T08:05:06.578Z,20.82
2022-07-27T08:06:06.549Z,20.71
2022-07-27T08:07:06.453Z,20.83
2022-07-27T08:08:06.492Z,20.85
2022-07-27T08:09:06.702Z,20.96
2022-07-27T08:10:06.305Z,20.93
2022-07-27T08:11:06.207Z,21.05
2022-07-27T08:12:06.179Z,21.30
2022-07-27T08:13:08.220Z,21.43
2022-07-27T08:14:06.085Z,21.52
2022-07-27T08:15:06.018Z,21.45
2022-07-27T08:16:06.028Z,21.58
2022-07-27T08:17:06.510Z,21.59
2022-07-27T08:18:05.955Z,21.66
2022-07-27T08:19:05.815Z,21.46
2022-07-27T08:20:05.715Z,21.12
2022-07-27T08:21:05.722Z,20.78
2022-07-27T08:22:05.555Z,20.46
2022-07-27T08:23:05.562Z,20.31
2022-07-27T08:24:05.467Z,20.37
2022-07-27T08:25:05.446Z,20.63
2022-07-27T08:26:08.021Z,20.64
2022-07-27T08:27:05.280Z,20.96
2022-07-27T08:28:05.256Z,21.36
2022-07-27T08:29:11.377Z,21.81
2022-07-27T08:30:05.196Z,22.08
2022-07-27T08:31:14.162Z,22.44
2022-07-27T08:32:05.945Z,22.66
2022-07-27T08:33:05.080Z,22.96
2022-07-27T08:34:04.917Z,23.69
2022-07-27T08:35:04.889Z,24.16
2022-07-27T08:36:04.794Z,24.33
2022-07-27T08:37:04.733Z,24.52
2022-07-27T08:38:04.701Z,24.09
2022-07-27T08:39:04.605Z,24.02
2022-07-27T08:41:04.809Z,24.16
2022-07-27T08:42:04.420Z,24.87
2022-07-27T08:43:05.231Z,25.38
2022-07-27T08:44:04.368Z,25.04
2022-07-27T08:45:04.207Z,25.63
2022-07-27T08:46:04.824Z,26.03
2022-07-27T08:47:04.216Z,26.35
2022-07-27T08:48:04.052Z,26.13
2022-07-27T08:49:04.091Z,25.82
2022-07-27T08:50:04.059Z,25.36
2022-07-27T08:51:03.946Z,24.93
2022-07-27T08:52:03.802Z,24.93
2022-07-27T08:53:03.775Z,24.64
2022-07-27T08:54:03.905Z,24.26
2022-07-27T08:55:03.681Z,24.02
2022-07-27T08:56:03.621Z,24.27
2022-07-27T08:57:03.594Z,23.96
2022-07-27T08:58:04.113Z,23.89
2022-07-27T08:59:03.438Z,23.71
2022-07-27T09:00:03.428Z,23.53
2022-07-27T09:01:03.308Z,23.47
2022-07-27T09:02:03.764Z,23.21
2022-07-27T09:03:03.619Z,23.03
2022-07-27T09:04:03.156Z,22.74
2022-07-27T09:05:03.132Z,22.57
2022-07-27T09:06:03.037Z,22.48
2022-07-27T09:07:02.970Z,22.27
2022-07-27T09:08:02.960Z,22.14
2022-07-27T09:09:04.323Z,22.29
2022-07-27T09:10:02.784Z,22.23
2022-07-27T09:11:06.206Z,22.14
2022-07-27T09:12:02.699Z,22.26
2022-07-27T09:13:02.669Z,22.54
2022-07-27T09:14:02.570Z,22.70
2022-07-27T09:15:02.509Z,22.84
2022-07-27T09:16:17.643Z,23.03
2022-07-27T09:18:02.357Z,23.57
2022-07-27T09:19:02.333Z,23.64
2022-07-27T09:20:02.341Z,23.60
2022-07-27T09:21:04.462Z,23.87
2022-07-27T09:22:02.118Z,23.41
2022-07-27T09:23:02.048Z,23.44
2022-07-27T09:24:02.031Z,23.63
2022-07-27T09:25:01.938Z,23.84
2022-07-27T09:26:04.776Z,23.75
2022-07-27T09:27:04.502Z,23.64
2022-07-27T09:28:01.838Z,23.71
2022-07-27T09:29:01.854Z,23.77
2022-07-27T09:30:03.913Z,23.79
2022-07-27T09:31:01.609Z,23.71
2022-07-27T09:32:01.700Z,24.04
2022-07-27T09:33:01.724Z,24.16
2022-07-27T09:34:01.981Z,24.41
2022-07-27T09:35:01.382Z,24.75
2022-07-27T09:36:01.460Z,25.11
2022-07-27T09:37:01.214Z,24.99
2022-07-27T09:38:01.201Z,25.01
2022-07-27T09:39:02.787Z,24.92
2022-07-27T09:40:01.121Z,25.04
2022-07-27T09:41:01.011Z,24.90
2022-07-27T09:42:01.300Z,24.79
2022-07-27T09:43:14.488Z,24.87
2022-07-27T09:45:00.821Z,24.92
2022-07-27T09:46:00.824Z,24.36
2022-07-27T09:47:00.766Z,24.39
2022-07-27T09:48:00.645Z,24.11
2022-07-27T09:49:00.616Z,23.74
2022-07-27T09:50:02.221Z,23.29
2022-07-27T09:51:02.687Z,22.88
2022-07-27T09:52:03.341Z,22.59
2022-07-27T09:53:00.290Z,22.36
2022-07-27T09:54:00.280Z,22.29
2022-07-27T09:55:00.201Z,22.02
2022-07-27T09:56:00.186Z,21.75
2022-07-27T09:57:00.107Z,21.73
2022-07-27T09:58:00.013Z,21.61
2022-07-27T09:58:59.991Z,21.58
2022-07-27T09:59:59.992Z,21.51
2022-07-27T10:00:59.908Z,21.31
2022-07-27T10:01:59.854Z,21.42
2022-07-27T10:03:00.055Z,21.70
2022-07-27T10:03:59.729Z,21.89
2022-07-27T10:04:59.712Z,22.20
2022-07-27T10:05:59.550Z,22.36
2022-07-27T10:07:04.649Z,22.26
2022-07-27T10:07:59.460Z,22.14
2022-07-27T10:08:59.442Z,22.11
2022-07-27T10:09:59.350Z,22.17
2022-07-27T10:10:59.276Z,22.36
2022-07-27T10:11:59.259Z,22.61
2022-07-27T10:12:59.159Z,22.67
2022-07-27T10:13:59.088Z,22.60
2022-07-27T10:14:59.080Z,22.64
2022-07-27T10:15:59.052Z,22.64
2022-07-27T10:16:58.972Z,22.59
2022-07-27T10:17:59.212Z,22.66
2022-07-27T10:18:58.767Z,22.49
2022-07-27T10:19:58.793Z,22.49
2022-07-27T10:20:58.717Z,22.44
2022-07-27T10:21:58.731Z,22.36
2022-07-27T10:22:59.281Z,22.30
2022-07-27T10:23:58.546Z,22.51
2022-07-27T10:24:58.518Z,22.67
2022-07-27T10:26:00.898Z,22.57
2022-07-27T10:26:58.419Z,22.70
2022-07-27T10:27:58.424Z,22.79
2022-07-27T10:29:00.193Z,22.96
2022-07-27T10:29:58.233Z,23.22
2022-07-27T10:30:58.174Z,23.22
2022-07-27T10:31:58.204Z,23.26
2022-07-27T10:32:57.980Z,23.18
2022-07-27T10:33:57.958Z,23.15
2022-07-27T10:34:57.914Z,22.94
2022-07-27T10:35:57.872Z,22.72
2022-07-27T10:36:57.779Z,22.66
2022-07-27T10:37:57.808Z,22.61
2022-07-27T10:38:57.694Z,22.82
2022-07-27T10:39:57.584Z,23.11
2022-07-27T10:40:57.485Z,23.34
2022-07-27T10:41:57.518Z,23.45
2022-07-27T10:42:57.413Z,23.45
2022-07-27T10:43:57.407Z,23.74
2022-07-27T10:44:57.305Z,23.74
2022-07-27T10:46:02.117Z,23.84
2022-07-27T10:46:57.220Z,23.90
2022-07-27T10:47:57.130Z,24.14
2022-07-27T10:48:57.125Z,24.36
2022-07-27T10:49:57.036Z,24.68
2022-07-27T10:50:56.948Z,24.92
2022-07-27T10:51:56.937Z,24.02
2022-07-27T10:52:56.861Z,23.69
2022-07-27T10:54:11.891Z,23.63
2022-07-27T10:54:59.958Z,23.00
2022-07-27T10:55:56.659Z,23.12
2022-07-27T10:56:56.593Z,23.45
2022-07-27T10:57:56.576Z,23.64
2022-07-27T10:58:56.480Z,23.81
2022-07-27T11:00:16.270Z,23.90
2022-07-27T11:00:56.420Z,23.77
2022-07-27T11:01:56.380Z,23.71
2022-07-27T11:02:56.446Z,23.64
2022-07-27T11:03:56.421Z,23.64
2022-07-27T11:04:56.133Z,23.63
2022-07-27T11:06:04.801Z,23.47
2022-07-27T11:07:23.696Z,23.41
2022-07-27T11:08:34.480Z,23.53
2022-07-27T11:09:27.331Z,24.31
2022-07-27T11:10:04.725Z,25.04
2022-07-27T11:10:55.864Z,25.60
2022-07-27T11:11:55.764Z,25.75
2022-07-27T11:12:55.759Z,25.74
2022-07-27T11:13:55.783Z,25.97
2022-07-27T11:14:55.563Z,25.83
2022-07-27T11:16:09.789Z,25.91
2022-07-27T11:16:58.940Z,25.79
2022-07-27T11:18:02.212Z,25.85
2022-07-27T11:18:55.404Z,25.57
2022-07-27T11:19:55.288Z,25.51
2022-07-27T11:20:55.212Z,25.48
2022-07-27T11:21:55.204Z,25.22
2022-07-27T11:23:55.104Z,25.14
2022-07-27T11:24:55.010Z,25.02
2022-07-27T11:25:54.939Z,24.90
2022-07-27T11:26:54.846Z,24.67
2022-07-27T11:27:54.820Z,24.34
2022-07-27T11:28:54.755Z,24.36
2022-07-27T11:29:54.822Z,24.27
2022-07-27T11:30:54.726Z,24.08
2022-07-27T11:31:57.734Z,24.02
2022-07-27T11:32:54.571Z,23.94
2022-07-27T11:33:54.544Z,23.77
2022-07-27T11:34:54.455Z,23.59
2022-07-27T11:35:54.359Z,23.56
2022-07-27T11:36:54.289Z,23.44
2022-07-27T11:37:54.272Z,23.22
2022-07-27T11:38:54.270Z,23.35
2022-07-27T11:40:00.282Z,23.38
2022-07-27T11:40:59.407Z,23.34
2022-07-27T11:42:09.055Z,23.59
2022-07-27T11:42:53.925Z,23.90
2022-07-27T11:43:53.904Z,24.19
2022-07-27T11:44:53.897Z,24.48
2022-07-27T11:45:53.865Z,24.79
2022-07-27T11:46:56.299Z,25.01
2022-07-27T11:47:53.689Z,24.93
2022-07-27T11:49:06.769Z,24.90
2022-07-27T11:49:53.662Z,25.08
2022-07-27T11:50:53.552Z,25.11
2022-07-27T11:51:53.438Z,25.26
2022-07-27T11:52:56.124Z,25.12
2022-07-27T11:53:53.377Z,24.98
2022-07-27T11:54:53.282Z,24.93
2022-07-27T11:55:53.287Z,24.87
2022-07-27T11:56:53.162Z,24.77
2022-07-27T11:57:53.092Z,24.63
2022-07-27T11:58:53.083Z,24.74
2022-07-27T11:59:52.977Z,24.70
2022-07-27T12:00:52.906Z,24.39
2022-07-27T12:01:52.947Z,24.37
2022-07-27T12:02:52.800Z,24.31
2022-07-27T12:03:52.824Z,24.16
2022-07-27T12:04:52.748Z,24.23
2022-07-27T12:05:52.635Z,24.52
2022-07-27T12:06:52.627Z,24.48
2022-07-27T12:07:52.519Z,24.61
2022-07-27T12:08:52.451Z,24.63
2022-07-27T12:09:52.445Z,24.75
2022-07-27T12:10:52.337Z,24.80
2022-07-27T12:11:52.344Z,24.74
2022-07-27T12:12:52.335Z,24.41
2022-07-27T12:13:52.174Z,24.36
2022-07-27T12:14:52.171Z,24.33
2022-07-27T12:15:52.058Z,24.18
2022-07-27T12:16:53.162Z,24.16
2022-07-27T12:17:51.995Z,24.08
2022-07-27T12:18:51.879Z,24.16
2022-07-27T12:19:51.889Z,24.05
2022-07-27T12:20:51.791Z,23.74
2022-07-27T12:21:51.777Z,23.72
2022-07-27T12:22:51.701Z,23.82
2022-07-27T12:23:51.599Z,23.67
2022-07-27T12:24:51.591Z,23.72
2022-07-27T12:25:51.522Z,23.60
2022-07-27T12:26:51.440Z,23.78
2022-07-27T12:27:51.341Z,23.96
2022-07-27T12:28:51.331Z,24.19
2022-07-27T12:29:51.249Z,24.21
2022-07-27T12:30:51.321Z,24.36
2022-07-27T12:31:51.128Z,24.60
2022-07-27T12:32:55.339Z,24.79
2022-07-27T12:33:54.811Z,25.01
2022-07-27T12:34:50.946Z,24.79
2022-07-27T12:35:50.949Z,24.79
2022-07-27T12:36:50.854Z,25.07
2022-07-27T12:37:50.793Z,24.94
2022-07-27T12:38:50.864Z,24.80
2022-07-27T12:39:50.693Z,24.80
2022-07-27T12:40:51.014Z,24.89
2022-07-27T12:41:50.586Z,24.98
2022-07-27T12:42:50.495Z,24.94
2022-07-27T12:43:50.502Z,24.94
2022-07-27T12:44:50.396Z,24.86
2022-07-27T12:45:50.400Z,24.98
2022-07-27T12:46:50.305Z,24.83
2022-07-27T12:47:50.747Z,24.63
2022-07-27T12:48:50.213Z,24.48
2022-07-27T12:49:50.126Z,24.39
2022-07-27T12:50:50.042Z,24.36
2022-07-27T12:51:50.040Z,24.30
2022-07-27T12:52:49.945Z,24.29
2022-07-27T12:53:49.867Z,24.05
2022-07-27T12:54:49.849Z,23.90
2022-07-27T12:55:50.044Z,23.94